Terminal Aerodrome Forecast
Issued by NWS

Home | Current Version | Previous Version | Text Only | Print | Product List | Glossary Off
Versions: 1 2 3 4 5 6 7 8 9 10 11 12 13 14

000
FTUS43 KFGF 260500
TAFBJI
TAF
KBJI 260520Z 2606/2706 31013KT P6SM BKN020
     FM261500 34013KT P6SM BKN040
     FM261800 33012KT P6SM SCT040
     FM270000 33007KT P6SM SKC=

USA.gov is the U.S. government's official web portal to all federal, state and local government web resources and services.